Thursday, February 22, 2018, 10:53 AM GMT
Back to Local

CYTR, Trenton, Ont.

Location: , , Canada Lat: 44.117
Local Time: 10:53 AM GMT (10:53 GMT) Lon: -77.533
Time Zone: GMT Elev: 278 ft

Show me the last for .
Show Decoded

2018-02-22 06:00 METAR CYTR 220600Z 33006KT 15SM FEW180 M01/M03 A3065 RMK AC1 SLP383 =
2018-02-22 05:00 METAR CYTR 220500Z 33008KT 15SM SKC M01/M03 A3063 RMK SLP377 =
2018-02-22 04:00 METAR CYTR 220400Z 34008KT 15SM SCT180 M01/M03 A3061 RMK AS3 SLP369 =

Support USWX by starting your Amazon purchase here.